createdAt,value
2022-12-04T00:01:26.566Z,41.97
2022-12-04T00:04:02.534Z,40.83
2022-12-04T00:06:33.882Z,42.00
2022-12-04T00:09:03.857Z,42.67
2022-12-04T00:11:35.792Z,42.75
2022-12-04T00:14:07.499Z,44.47
2022-12-04T00:16:38.468Z,45.03
2022-12-04T00:19:10.951Z,42.78
2022-12-04T00:21:40.870Z,43.03
2022-12-04T00:24:10.963Z,42.85
2022-12-04T00:26:40.856Z,43.42
2022-12-04T00:29:10.844Z,44.55
2022-12-04T00:31:40.812Z,46.47
2022-12-04T00:34:13.408Z,41.78
2022-12-04T00:36:43.285Z,41.22
2022-12-04T00:39:13.162Z,38.75
2022-12-04T00:41:43.237Z,41.28
2022-12-04T00:44:13.181Z,44.13
2022-12-04T00:46:43.021Z,42.97
2022-12-04T00:49:15.477Z,42.85
2022-12-04T00:51:45.354Z,43.28
2022-12-04T00:54:15.249Z,45.28
2022-12-04T00:56:45.072Z,41.72
2022-12-04T00:59:15.109Z,43.65
2022-12-04T01:01:44.999Z,41.40
2022-12-04T01:04:17.478Z,42.92
2022-12-04T01:06:47.335Z,40.20
2022-12-04T01:09:17.281Z,43.83
2022-12-04T01:11:47.189Z,43.83
2022-12-04T01:14:17.025Z,43.67
2022-12-04T01:16:46.880Z,45.80
2022-12-04T01:19:19.403Z,43.95
2022-12-04T01:21:49.234Z,45.15
2022-12-04T01:24:19.097Z,40.25
2022-12-04T01:26:48.931Z,42.58
2022-12-04T01:29:18.763Z,44.42
2022-12-04T01:31:48.736Z,43.33
2022-12-04T01:34:21.289Z,42.80
2022-12-04T01:36:51.160Z,43.45
2022-12-04T01:39:21.586Z,40.50
2022-12-04T01:41:51.686Z,42.55
2022-12-04T01:44:24.842Z,43.35
2022-12-04T01:46:56.692Z,43.10
2022-12-04T01:49:34.393Z,43.63
2022-12-04T01:52:09.254Z,45.13
2022-12-04T01:54:46.703Z,43.38
2022-12-04T01:57:20.453Z,44.95
2022-12-04T01:59:55.020Z,44.00
2022-12-04T02:02:33.179Z,42.50
2022-12-04T02:05:09.484Z,43.65
2022-12-04T02:07:41.016Z,42.58
2022-12-04T02:10:13.889Z,44.72
2022-12-04T02:12:52.785Z,46.42
2022-12-04T02:15:28.019Z,46.13
2022-12-04T02:18:07.449Z,43.70
2022-12-04T02:20:45.711Z,47.08
2022-12-04T02:23:43.130Z,44.65
2022-12-04T02:26:32.780Z,44.78
2022-12-04T02:29:11.896Z,41.97
2022-12-04T02:31:49.129Z,45.40
2022-12-04T02:34:28.633Z,46.13
2022-12-04T02:37:04.122Z,45.22
2022-12-04T02:39:39.500Z,42.55
2022-12-04T02:42:17.365Z,43.38
2022-12-04T02:44:56.141Z,43.72
2022-12-04T02:47:28.360Z,42.03
2022-12-04T02:50:02.481Z,41.35
2022-12-04T02:52:38.251Z,45.47
2022-12-04T02:55:14.970Z,44.10
2022-12-04T02:57:49.771Z,43.85
2022-12-04T03:00:24.385Z,40.00
2022-12-04T03:02:59.456Z,40.72
2022-12-04T03:05:38.798Z,41.78
2022-12-04T03:08:13.340Z,46.60
2022-12-04T03:10:50.102Z,40.90
2022-12-04T03:13:24.598Z,40.97
2022-12-04T03:16:04.551Z,41.88
2022-12-04T03:18:41.864Z,43.17
2022-12-04T03:21:16.954Z,40.53
2022-12-04T03:23:53.161Z,41.63
2022-12-04T03:26:31.702Z,42.63
2022-12-04T03:29:10.936Z,41.33
2022-12-04T03:31:50.362Z,44.47
2022-12-04T03:34:28.772Z,40.58
2022-12-04T03:37:04.724Z,42.78
2022-12-04T03:39:41.635Z,45.40
2022-12-04T03:42:21.914Z,40.10
2022-12-04T03:44:58.109Z,42.80
2022-12-04T03:47:37.470Z,41.17
2022-12-04T03:50:15.318Z,40.80
2022-12-04T03:52:54.037Z,41.70
2022-12-04T03:55:30.320Z,42.15
2022-12-04T03:58:05.971Z,44.15
2022-12-04T04:00:39.802Z,42.67
2022-12-04T04:03:18.097Z,42.03
2022-12-04T04:05:53.312Z,39.20
2022-12-04T04:08:33.961Z,40.05
2022-12-04T04:11:13.882Z,43.10
2022-12-04T04:14:05.124Z,41.90
2022-12-04T04:16:50.862Z,44.28
2022-12-04T04:19:37.055Z,40.72
2022-12-04T04:22:25.254Z,43.53
2022-12-04T04:25:00.700Z,43.58
2022-12-04T04:27:30.526Z,38.10
2022-12-04T04:30:00.623Z,43.22
2022-12-04T04:32:40.479Z,39.45
2022-12-04T04:35:23.298Z,37.92
2022-12-04T04:38:01.471Z,41.47
2022-12-04T04:40:39.746Z,42.45
2022-12-04T04:43:16.043Z,39.67
2022-12-04T04:45:50.633Z,38.47
2022-12-04T04:48:26.600Z,41.08
2022-12-04T04:50:59.354Z,43.67
2022-12-04T04:53:39.987Z,42.92
2022-12-04T04:56:11.302Z,42.17
2022-12-04T04:58:41.566Z,43.42
2022-12-04T05:01:14.900Z,40.08
2022-12-04T05:03:45.431Z,43.28
2022-12-04T05:06:18.126Z,39.85
2022-12-04T05:08:49.369Z,39.45
2022-12-04T05:11:20.189Z,40.75
2022-12-04T05:13:50.026Z,40.88
2022-12-04T05:16:20.330Z,41.30
2022-12-04T05:19:02.731Z,40.25
2022-12-04T05:21:35.742Z,40.28
2022-12-04T05:24:05.614Z,40.42
2022-12-04T05:26:35.443Z,40.75
2022-12-04T05:29:05.449Z,42.40
2022-12-04T05:31:35.357Z,40.30
2022-12-04T05:34:05.202Z,40.72
2022-12-04T05:36:37.623Z,41.35
2022-12-04T05:39:07.643Z,40.42
2022-12-04T05:41:37.505Z,39.30
2022-12-04T05:44:07.442Z,41.55
2022-12-04T05:46:37.321Z,44.38
2022-12-04T05:49:07.420Z,41.70
2022-12-04T05:51:39.805Z,41.15
2022-12-04T05:54:09.627Z,40.33
2022-12-04T05:56:39.779Z,42.75
2022-12-04T05:59:09.596Z,42.35
2022-12-04T06:01:39.711Z,41.90
2022-12-04T06:04:09.662Z,39.20
2022-12-04T06:06:42.509Z,40.95
2022-12-04T06:09:13.565Z,41.40
2022-12-04T06:11:45.041Z,44.80
2022-12-04T06:14:17.703Z,42.13
2022-12-04T06:16:50.293Z,40.40
2022-12-04T06:19:23.522Z,41.80
2022-12-04T06:21:56.559Z,41.15
2022-12-04T06:24:27.686Z,40.70
2022-12-04T06:29:50.001Z,41.20
2022-12-04T06:32:22.020Z,40.90
2022-12-04T06:34:54.561Z,40.70
2022-12-04T06:37:28.403Z,40.70
2022-12-04T06:39:58.486Z,38.93
2022-12-04T06:42:29.100Z,42.55
2022-12-04T06:44:58.918Z,41.05
2022-12-04T06:47:28.757Z,41.13
2022-12-04T06:49:58.952Z,41.65
2022-12-04T06:52:31.487Z,42.53
2022-12-04T06:55:01.290Z,42.42
2022-12-04T06:57:31.204Z,39.50
2022-12-04T07:00:01.094Z,40.33
2022-12-04T07:02:31.010Z,40.92
2022-12-04T07:05:00.989Z,39.70
2022-12-04T07:07:33.400Z,41.30
2022-12-04T07:10:03.275Z,38.97
2022-12-04T07:12:33.153Z,41.03
2022-12-04T07:15:03.005Z,41.72
2022-12-04T07:17:32.818Z,43.03
2022-12-04T07:20:02.659Z,41.33
2022-12-04T07:22:35.030Z,39.97
2022-12-04T07:25:04.875Z,42.67
2022-12-04T07:27:35.038Z,41.17
2022-12-04T07:30:04.881Z,40.78
2022-12-04T07:32:35.122Z,38.30
2022-12-04T07:35:05.020Z,41.63
2022-12-04T07:37:39.135Z,40.03
2022-12-04T07:40:11.097Z,41.50
2022-12-04T07:42:40.902Z,38.92
2022-12-04T07:45:12.594Z,43.30
2022-12-04T07:47:42.502Z,42.30
2022-12-04T07:50:12.634Z,42.05
2022-12-04T07:52:45.093Z,40.95
2022-12-04T07:55:17.673Z,39.72
2022-12-04T07:57:51.509Z,41.35
2022-12-04T08:00:22.962Z,40.72
2022-12-04T08:02:53.395Z,42.65
2022-12-04T08:05:23.404Z,44.50
2022-12-04T08:07:56.194Z,40.17
2022-12-04T08:10:26.110Z,43.10
2022-12-04T08:12:55.907Z,42.05
2022-12-04T08:15:25.706Z,37.67
2022-12-04T08:17:55.499Z,41.10
2022-12-04T08:20:25.337Z,38.85
2022-12-04T08:22:57.735Z,41.65
2022-12-04T08:25:27.658Z,39.10
2022-12-04T08:27:57.498Z,40.25
2022-12-04T08:30:27.358Z,40.70
2022-12-04T08:32:57.158Z,40.42
2022-12-04T08:35:26.997Z,38.42
2022-12-04T08:37:59.418Z,41.70
2022-12-04T08:40:29.343Z,39.88
2022-12-04T08:42:59.197Z,38.60
2022-12-04T08:45:29.141Z,41.47
2022-12-04T08:47:58.938Z,43.50
2022-12-04T08:50:28.788Z,37.85
2022-12-04T08:53:01.318Z,40.50
2022-12-04T08:55:31.136Z,37.70
2022-12-04T08:58:00.958Z,40.15
2022-12-04T09:00:31.606Z,39.45
2022-12-04T09:03:01.437Z,38.00
2022-12-04T09:05:32.470Z,40.35
2022-12-04T09:08:04.941Z,41.50
2022-12-04T09:10:37.279Z,39.58
2022-12-04T09:13:07.471Z,39.35
2022-12-04T09:15:37.810Z,43.40
2022-12-04T09:18:07.895Z,38.42
2022-12-04T09:20:38.219Z,39.38
2022-12-04T09:23:10.622Z,36.65
2022-12-04T09:25:40.908Z,40.65
2022-12-04T09:28:10.733Z,39.28
2022-12-04T09:30:40.601Z,39.00
2022-12-04T09:33:10.677Z,39.15
2022-12-04T09:35:42.484Z,38.92
2022-12-04T09:38:14.872Z,36.55
2022-12-04T09:40:55.534Z,38.53
2022-12-04T09:43:34.637Z,37.63
2022-12-04T09:46:13.183Z,37.92
2022-12-04T09:48:45.974Z,40.40
2022-12-04T09:51:22.302Z,37.38
2022-12-04T09:54:00.660Z,37.45
2022-12-04T09:56:33.778Z,37.50
2022-12-04T09:59:11.731Z,36.35
2022-12-04T10:01:48.613Z,38.72
2022-12-04T10:04:19.318Z,37.78
2022-12-04T10:06:58.141Z,38.83
2022-12-04T10:09:38.088Z,36.15
2022-12-04T10:12:19.759Z,35.65
2022-12-04T10:15:02.857Z,37.20
2022-12-04T10:17:50.742Z,35.45
2022-12-04T10:20:51.713Z,35.65
2022-12-04T10:23:31.562Z,36.00
2022-12-04T10:26:06.718Z,36.65
2022-12-04T10:28:41.202Z,36.15
2022-12-04T10:31:17.112Z,36.13
2022-12-04T10:33:51.672Z,36.67
2022-12-04T10:36:25.493Z,35.85
2022-12-04T10:38:59.706Z,33.57
2022-12-04T10:41:41.003Z,36.33
2022-12-04T10:44:18.112Z,35.83
2022-12-04T10:46:48.135Z,34.08
2022-12-04T10:49:22.845Z,37.63
2022-12-04T10:51:53.210Z,33.72
2022-12-04T10:54:28.331Z,35.10
2022-12-04T10:57:03.523Z,35.55
2022-12-04T10:59:34.041Z,35.00
2022-12-04T11:02:08.331Z,34.15
2022-12-04T11:04:38.710Z,36.40
2022-12-04T11:07:17.130Z,34.85
2022-12-04T11:09:47.008Z,36.83
2022-12-04T11:12:25.614Z,34.05
2022-12-04T11:15:15.641Z,34.72
2022-12-04T11:17:45.518Z,38.80
2022-12-04T11:20:20.977Z,35.38
2022-12-04T11:22:57.142Z,34.88
2022-12-04T11:25:29.898Z,35.35
2022-12-04T11:28:05.423Z,35.70
2022-12-04T11:30:39.121Z,35.72
2022-12-04T11:33:21.178Z,33.92
2022-12-04T11:35:55.389Z,34.95
2022-12-04T11:38:29.968Z,36.22
2022-12-04T11:41:01.582Z,36.20
2022-12-04T11:43:37.815Z,38.40
2022-12-04T11:46:10.088Z,33.63
2022-12-04T11:48:47.109Z,35.63
2022-12-04T11:51:32.514Z,35.65
2022-12-04T11:54:10.691Z,33.92
2022-12-04T11:56:46.026Z,38.70
2022-12-04T11:59:39.878Z,35.50
2022-12-04T12:02:35.998Z,36.35
2022-12-04T12:05:34.282Z,36.45
2022-12-04T12:08:12.018Z,36.38
2022-12-04T12:10:53.894Z,33.63
2022-12-04T12:13:35.374Z,36.05
2022-12-04T12:16:16.935Z,37.92
2022-12-04T12:19:08.612Z,35.20
2022-12-04T12:21:50.563Z,36.20
2022-12-04T12:24:29.274Z,36.97
2022-12-04T12:27:38.259Z,38.08
2022-12-04T12:30:16.277Z,37.13
2022-12-04T12:33:13.585Z,35.88
2022-12-04T12:36:00.706Z,37.33
2022-12-04T12:38:36.949Z,34.53
2022-12-04T12:41:13.825Z,36.05
2022-12-04T12:43:48.522Z,35.28
2022-12-04T12:49:03.511Z,36.22
2022-12-04T12:51:38.271Z,36.75
2022-12-04T12:56:54.153Z,38.42
2022-12-04T12:59:28.514Z,38.08
2022-12-04T13:02:04.975Z,41.00
2022-12-04T13:04:43.607Z,40.00
2022-12-04T13:07:29.351Z,40.63
2022-12-04T13:10:08.413Z,40.10
2022-12-04T13:12:47.515Z,38.42
2022-12-04T13:15:20.053Z,39.80
2022-12-04T13:17:52.619Z,38.22
2022-12-04T13:20:29.337Z,41.03
2022-12-04T13:23:19.597Z,39.88
2022-12-04T13:26:00.809Z,39.03
2022-12-04T13:28:48.084Z,37.67
2022-12-04T13:31:30.226Z,39.05
2022-12-04T13:34:39.077Z,38.40
2022-12-04T13:37:36.602Z,41.03
2022-12-04T13:40:33.887Z,40.50
2022-12-04T13:43:27.759Z,41.65
2022-12-04T13:45:59.869Z,40.50
2022-12-04T13:48:33.595Z,41.22
2022-12-04T13:51:27.780Z,41.47
2022-12-04T13:54:29.468Z,41.47
2022-12-04T13:57:12.465Z,41.58
2022-12-04T13:59:43.265Z,39.50
2022-12-04T14:02:35.387Z,42.47
2022-12-04T14:05:08.196Z,42.95
2022-12-04T14:07:40.995Z,42.60
2022-12-04T14:10:31.015Z,39.45
2022-12-04T14:13:04.961Z,41.65
2022-12-04T14:15:38.057Z,43.60
2022-12-04T14:18:21.961Z,42.90
2022-12-04T14:21:04.540Z,42.60
2022-12-04T14:23:42.581Z,42.28
2022-12-04T14:27:10.848Z,41.45
2022-12-04T14:29:41.566Z,42.38
2022-12-04T14:32:17.496Z,44.85
2022-12-04T14:34:48.899Z,38.65
2022-12-04T14:37:28.535Z,43.67
2022-12-04T14:40:00.506Z,45.03
2022-12-04T14:42:39.476Z,44.63
2022-12-04T14:45:35.674Z,44.17
2022-12-04T14:48:28.982Z,45.10
2022-12-04T14:51:10.612Z,45.83
2022-12-04T14:53:49.070Z,47.40
2022-12-04T14:56:40.649Z,45.78
2022-12-04T14:59:20.557Z,47.78
2022-12-04T15:01:53.459Z,43.60
2022-12-04T15:04:28.246Z,47.63
2022-12-04T15:07:00.546Z,42.70
2022-12-04T15:09:44.206Z,46.95
2022-12-04T15:12:37.087Z,44.70
2022-12-04T15:15:19.448Z,46.50
2022-12-04T15:18:00.695Z,48.05
2022-12-04T15:20:38.695Z,48.70
2022-12-04T15:23:09.196Z,48.72
2022-12-04T15:25:46.909Z,49.42
2022-12-04T15:28:21.367Z,44.45
2022-12-04T15:30:54.857Z,46.05
2022-12-04T15:33:29.417Z,48.55
2022-12-04T15:36:05.499Z,44.20
2022-12-04T15:38:35.655Z,45.72
2022-12-04T15:41:05.788Z,48.30
2022-12-04T15:43:43.673Z,48.05
2022-12-04T15:46:24.844Z,49.40
2022-12-04T15:48:54.735Z,46.78
2022-12-04T15:51:24.729Z,46.00
2022-12-04T15:53:54.590Z,50.38
2022-12-04T15:56:25.573Z,53.38
2022-12-04T15:59:00.291Z,53.65
2022-12-04T16:04:23.184Z,47.75
2022-12-04T16:06:54.786Z,50.22
2022-12-04T16:09:27.113Z,49.55
2022-12-04T16:12:03.175Z,51.47
2022-12-04T16:14:33.266Z,48.95
2022-12-04T16:17:06.686Z,49.83
2022-12-04T16:19:38.829Z,51.95
2022-12-04T16:22:20.268Z,53.15
2022-12-04T16:24:50.560Z,50.50
2022-12-04T16:27:25.597Z,52.13
2022-12-04T16:29:56.339Z,49.03
2022-12-04T16:32:33.298Z,51.15
2022-12-04T16:35:03.880Z,51.08
2022-12-04T16:37:33.841Z,48.15
2022-12-04T16:40:06.500Z,54.28
2022-12-04T16:42:36.524Z,49.22
2022-12-04T16:45:10.660Z,47.85
2022-12-04T16:47:43.081Z,51.17
2022-12-04T16:50:13.556Z,49.65
2022-12-04T16:52:43.418Z,48.58
2022-12-04T16:55:21.560Z,52.63
2022-12-04T16:57:51.515Z,46.45
2022-12-04T17:00:23.178Z,51.33
2022-12-04T17:02:55.913Z,48.60
2022-12-04T17:05:29.128Z,49.08
2022-12-04T17:07:59.145Z,51.05
2022-12-04T17:10:30.056Z,46.08
2022-12-04T17:13:00.426Z,51.90
2022-12-04T17:15:30.324Z,48.13
2022-12-04T17:18:07.570Z,51.30
2022-12-04T17:20:43.806Z,52.70
2022-12-04T17:23:15.233Z,50.83
2022-12-04T17:25:45.433Z,52.63
2022-12-04T17:28:15.347Z,52.58
2022-12-04T17:30:48.699Z,50.78
2022-12-04T17:33:21.225Z,51.75
2022-12-04T17:35:51.253Z,48.20
2022-12-04T17:38:21.192Z,53.00
2022-12-04T17:41:02.806Z,49.00
2022-12-04T17:43:33.533Z,52.03
2022-12-04T17:46:03.671Z,53.65
2022-12-04T17:48:36.394Z,50.40
2022-12-04T17:51:08.599Z,51.97
2022-12-04T17:53:39.047Z,47.83
2022-12-04T17:56:12.589Z,48.80
2022-12-04T17:58:42.759Z,50.55
2022-12-04T18:01:15.469Z,44.67
2022-12-04T18:03:53.225Z,47.80
2022-12-04T18:06:26.634Z,50.13
2022-12-04T18:08:57.047Z,49.58
2022-12-04T18:11:29.538Z,47.38
2022-12-04T18:14:04.809Z,47.78
2022-12-04T18:16:39.972Z,49.40
2022-12-04T18:19:13.738Z,49.15
2022-12-04T18:21:43.980Z,49.35
2022-12-04T18:24:14.097Z,47.28
2022-12-04T18:26:48.151Z,48.00
2022-12-04T18:29:21.519Z,47.85
2022-12-04T18:31:52.202Z,42.92
2022-12-04T18:34:25.060Z,48.20
2022-12-04T18:36:54.961Z,50.83
2022-12-04T18:39:28.356Z,50.45
2022-12-04T18:41:59.142Z,48.72
2022-12-04T18:44:29.392Z,49.05
2022-12-04T18:46:59.292Z,43.45
2022-12-04T18:49:33.147Z,47.53
2022-12-04T18:52:03.068Z,47.17
2022-12-04T18:54:32.876Z,50.28
2022-12-04T18:57:03.059Z,48.55
2022-12-04T18:59:33.135Z,47.25
2022-12-04T19:02:03.140Z,47.88
2022-12-04T19:04:36.149Z,45.78
2022-12-04T19:07:05.988Z,48.85
2022-12-04T19:10:09.425Z,45.47
2022-12-04T19:12:26.015Z,44.60
2022-12-04T19:14:55.983Z,47.45
2022-12-04T19:17:25.969Z,44.95
2022-12-04T19:19:58.735Z,47.00
2022-12-04T19:22:28.901Z,46.63
2022-12-04T19:24:58.801Z,47.33
2022-12-04T19:27:28.837Z,47.45
2022-12-04T19:30:01.123Z,45.80
2022-12-04T19:32:31.055Z,47.13
2022-12-04T19:35:03.720Z,45.33
2022-12-04T19:37:38.192Z,43.83
2022-12-04T19:40:13.753Z,43.65
2022-12-04T19:42:43.628Z,51.20
2022-12-04T19:45:13.990Z,48.58
2022-12-04T19:47:43.847Z,50.38
2022-12-04T19:50:16.578Z,50.13
2022-12-04T19:52:46.457Z,43.67
2022-12-04T19:55:16.390Z,45.15
2022-12-04T19:57:46.289Z,45.05
2022-12-04T20:00:17.477Z,47.83
2022-12-04T20:02:47.403Z,43.35
2022-12-04T20:05:20.029Z,45.63
2022-12-04T20:07:49.968Z,46.50
2022-12-04T20:10:21.026Z,46.90
2022-12-04T20:12:50.998Z,45.53
2022-12-04T20:15:20.906Z,47.28
2022-12-04T20:17:52.055Z,49.08
2022-12-04T20:20:24.527Z,44.80
2022-12-04T20:22:54.363Z,47.78
2022-12-04T20:25:24.461Z,44.08
2022-12-04T20:27:54.507Z,45.85
2022-12-04T20:30:24.425Z,43.28
2022-12-04T20:32:54.290Z,47.15
2022-12-04T20:35:26.801Z,45.85
2022-12-04T20:37:56.655Z,46.08
2022-12-04T20:40:26.485Z,47.35
2022-12-04T20:42:56.606Z,46.08
2022-12-04T20:45:26.509Z,45.08
2022-12-04T20:47:57.961Z,45.38
2022-12-04T20:50:30.476Z,46.65
2022-12-04T20:53:00.295Z,42.72
2022-12-04T20:55:30.318Z,45.38
2022-12-04T20:58:00.218Z,44.65
2022-12-04T21:00:30.038Z,45.03
2022-12-04T21:02:59.944Z,43.03
2022-12-04T21:05:32.384Z,46.50
2022-12-04T21:08:02.247Z,45.67
2022-12-04T21:10:32.966Z,43.47
2022-12-04T21:13:15.299Z,43.55
2022-12-04T21:15:57.451Z,46.65
2022-12-04T21:18:27.604Z,46.05
2022-12-04T21:21:00.034Z,43.08
2022-12-04T21:23:29.857Z,45.00
2022-12-04T21:25:59.686Z,45.03
2022-12-04T21:28:31.233Z,42.70
2022-12-04T21:31:04.842Z,44.67
2022-12-04T21:33:37.694Z,39.03
2022-12-04T21:36:12.505Z,44.63
2022-12-04T21:41:33.370Z,42.75
2022-12-04T21:44:03.431Z,44.20
2022-12-04T21:46:33.439Z,43.83
2022-12-04T21:49:03.419Z,41.08
2022-12-04T21:54:26.025Z,44.33
2022-12-04T21:56:55.871Z,46.83
2022-12-04T21:59:26.177Z,46.05
2022-12-04T22:01:56.367Z,45.40
2022-12-04T22:04:26.660Z,48.47
2022-12-04T22:06:59.105Z,46.35
2022-12-04T22:09:28.958Z,45.00
2022-12-04T22:11:58.819Z,47.95
2022-12-04T22:14:28.735Z,45.42
2022-12-04T22:16:59.672Z,45.72
2022-12-04T22:19:29.653Z,48.40
2022-12-04T22:22:02.042Z,49.00
2022-12-04T22:24:32.294Z,43.80
2022-12-04T22:27:02.314Z,44.20
2022-12-04T22:32:22.970Z,41.90
2022-12-04T22:34:52.912Z,45.88
2022-12-04T22:37:26.725Z,44.67
2022-12-04T22:39:56.864Z,41.97
2022-12-04T22:42:26.868Z,43.35
2022-12-04T22:44:56.683Z,49.38
2022-12-04T22:47:26.555Z,47.33
2022-12-04T22:49:57.965Z,41.30
2022-12-04T22:52:32.888Z,44.03
2022-12-04T22:57:32.464Z,46.85
2022-12-04T23:00:02.295Z,46.45
2022-12-04T23:02:32.158Z,52.22
2022-12-04T23:05:02.045Z,47.78
2022-12-04T23:07:34.579Z,42.83
2022-12-04T23:10:04.510Z,43.50
2022-12-04T23:12:34.346Z,43.03
2022-12-04T23:15:04.183Z,45.42
2022-12-04T23:17:34.040Z,47.40
2022-12-04T23:20:03.962Z,46.28
2022-12-04T23:22:36.464Z,47.30
2022-12-04T23:25:07.419Z,45.50
2022-12-04T23:27:37.605Z,45.28
2022-12-04T23:30:09.702Z,45.95
2022-12-04T23:32:39.728Z,45.25
2022-12-04T23:35:10.492Z,47.15
2022-12-04T23:37:43.089Z,47.13
2022-12-04T23:40:14.267Z,47.88
2022-12-04T23:42:44.140Z,46.13
2022-12-04T23:45:14.559Z,45.28
2022-12-04T23:47:44.390Z,46.08
2022-12-04T23:50:14.270Z,43.63
2022-12-04T23:52:46.685Z,44.60
2022-12-04T23:55:16.595Z,45.15
2022-12-04T23:57:46.422Z,44.58
